Terminal Aerodrome Forecast
Issued by NWS Charleston, WV

Current Version | Previous Version | Graphics & Text | Print | Product List | Glossary On
Versions: 1 2 3 4 5 6 7 8 9 10 11 12 13 14 15 16 17 18 19 20 21 22 23 24 25 26 27 28 29 30 31
370
FTUS41 KRLX 051945 AAA
TAFBKW
TAF AMD
KBKW 051945Z 0520/0618 34007KT P6SM SCT021
     FM052200 34005KT P6SM BKN120
     FM060600 13009KT P6SM OVC030
     FM060800 13011KT P6SM OVC008 WS005/14020KT
     FM060900 13012KT 6SM -RA OVC008 WS005/13030KT
     FM061100 13014KT 3SM -RA OVC008 WS005/13035KT=

USA.gov is the U.S. government's official web portal to all federal, state and local government web resources and services.